sensor_id;sensor_type;location;lat;lon;timestamp;temperature;humidity
12408;DHT22;6268;48.188;17.134;2024-03-23T00:55:58;12.60;99.90
12408;DHT22;6268;48.188;17.134;2024-03-23T00:59:19;12.60;99.90
12408;DHT22;6268;48.188;17.134;2024-03-23T01:02:38;12.60;99.90
12408;DHT22;6268;48.188;17.134;2024-03-23T01:05:59;12.60;99.90
12408;DHT22;6268;48.188;17.134;2024-03-23T01:09:19;12.50;99.90
12408;DHT22;6268;48.188;17.134;2024-03-23T01:12:40;12.50;99.90
12408;DHT22;6268;48.188;17.134;2024-03-23T01:16:01;12.50;99.90
12408;DHT22;6268;48.188;17.134;2024-03-23T01:19:21;12.50;99.90
12408;DHT22;6268;48.188;17.134;2024-03-23T01:22:41;12.50;99.90
12408;DHT22;6268;48.188;17.134;2024-03-23T01:26:01;12.50;99.90
12408;DHT22;6268;48.188;17.134;2024-03-23T01:29:24;12.50;99.90
12408;DHT22;6268;48.188;17.134;2024-03-23T01:32:43;12.50;99.90
12408;DHT22;6268;48.188;17.134;2024-03-23T01:36:04;12.50;99.90
12408;DHT22;6268;48.188;17.134;2024-03-23T01:39:23;12.40;99.90
12408;DHT22;6268;48.188;17.134;2024-03-23T01:42:55;12.40;99.90
12408;DHT22;6268;48.188;17.134;2024-03-23T01:46:18;12.40;99.90
12408;DHT22;6268;48.188;17.134;2024-03-23T01:49:38;12.40;99.90
12408;DHT22;6268;48.188;17.134;2024-03-23T01:53:01;12.30;99.90
12408;DHT22;6268;48.188;17.134;2024-03-23T01:56:22;12.30;99.90
12408;DHT22;6268;48.188;17.134;2024-03-23T01:59:43;12.30;99.90
12408;DHT22;6268;48.188;17.134;2024-03-23T02:03:22;12.30;99.90
12408;DHT22;6268;48.188;17.134;2024-03-23T02:06:43;12.30;99.90
12408;DHT22;6268;48.188;17.134;2024-03-23T02:10:03;12.30;99.90
12408;DHT22;6268;48.188;17.134;2024-03-23T02:13:24;12.20;99.90
12408;DHT22;6268;48.188;17.134;2024-03-23T02:16:45;12.20;99.90
12408;DHT22;6268;48.188;17.134;2024-03-23T02:20:08;12.20;99.90
12408;DHT22;6268;48.188;17.134;2024-03-23T02:23:31;12.20;99.90
12408;DHT22;6268;48.188;17.134;2024-03-23T02:26:50;12.20;99.90
12408;DHT22;6268;48.188;17.134;2024-03-23T02:30:11;12.10;99.90
12408;DHT22;6268;48.188;17.134;2024-03-23T02:33:31;12.10;99.90
12408;DHT22;6268;48.188;17.134;2024-03-23T02:36:51;12.10;99.90
12408;DHT22;6268;48.188;17.134;2024-03-23T02:40:12;12.10;99.90
12408;DHT22;6268;48.188;17.134;2024-03-23T02:43:32;12.10;99.90
12408;DHT22;6268;48.188;17.134;2024-03-23T02:46:53;12.10;99.90
12408;DHT22;6268;48.188;17.134;2024-03-23T02:50:18;12.10;99.90
12408;DHT22;6268;48.188;17.134;2024-03-23T02:53:37;12.10;99.90
12408;DHT22;6268;48.188;17.134;2024-03-23T02:56:59;12.10;99.90
12408;DHT22;6268;48.188;17.134;2024-03-23T03:00:20;12.10;99.90
12408;DHT22;6268;48.188;17.134;2024-03-23T03:03:40;12.00;99.90
12408;DHT22;6268;48.188;17.134;2024-03-23T03:07:00;12.00;99.90
12408;DHT22;6268;48.188;17.134;2024-03-23T03:10:20;12.10;99.90
12408;DHT22;6268;48.188;17.134;2024-03-23T03:13:42;12.10;99.90
12408;DHT22;6268;48.188;17.134;2024-03-23T03:17:02;12.00;99.90
12408;DHT22;6268;48.188;17.134;2024-03-23T03:20:22;12.00;99.90
12408;DHT22;6268;48.188;17.134;2024-03-23T03:23:42;12.00;99.90
12408;DHT22;6268;48.188;17.134;2024-03-23T03:27:03;12.00;99.90
12408;DHT22;6268;48.188;17.134;2024-03-23T03:30:23;12.00;99.90
12408;DHT22;6268;48.188;17.134;2024-03-23T03:33:44;11.90;99.90
12408;DHT22;6268;48.188;17.134;2024-03-23T03:37:05;11.90;99.90
12408;DHT22;6268;48.188;17.134;2024-03-23T03:40:24;11.90;99.90
12408;DHT22;6268;48.188;17.134;2024-03-23T03:43:45;11.90;99.90
12408;DHT22;6268;48.188;17.134;2024-03-23T03:47:07;11.90;99.90
12408;DHT22;6268;48.188;17.134;2024-03-23T03:50:28;11.90;99.90
12408;DHT22;6268;48.188;17.134;2024-03-23T03:53:48;11.90;99.90
12408;DHT22;6268;48.188;17.134;2024-03-23T03:57:08;11.90;99.90
12408;DHT22;6268;48.188;17.134;2024-03-23T04:00:28;11.80;99.90
12408;DHT22;6268;48.188;17.134;2024-03-23T04:03:50;11.90;99.90
12408;DHT22;6268;48.188;17.134;2024-03-23T04:07:10;11.90;99.90
12408;DHT22;6268;48.188;17.134;2024-03-23T04:10:30;11.80;99.90
12408;DHT22;6268;48.188;17.134;2024-03-23T04:13:51;11.80;99.90
12408;DHT22;6268;48.188;17.134;2024-03-23T04:17:10;11.80;99.90
12408;DHT22;6268;48.188;17.134;2024-03-23T04:20:33;11.80;99.90
12408;DHT22;6268;48.188;17.134;2024-03-23T04:23:52;11.80;99.90
12408;DHT22;6268;48.188;17.134;2024-03-23T04:27:13;11.80;99.90
12408;DHT22;6268;48.188;17.134;2024-03-23T04:30:32;11.80;99.90
12408;DHT22;6268;48.188;17.134;2024-03-23T04:33:53;11.80;99.90
12408;DHT22;6268;48.188;17.134;2024-03-23T04:37:13;11.70;99.90
12408;DHT22;6268;48.188;17.134;2024-03-23T04:40:34;11.70;99.90
12408;DHT22;6268;48.188;17.134;2024-03-23T04:43:56;11.70;99.90
12408;DHT22;6268;48.188;17.134;2024-03-23T04:47:16;11.70;99.90
12408;DHT22;6268;48.188;17.134;2024-03-23T04:50:37;11.70;99.90
12408;DHT22;6268;48.188;17.134;2024-03-23T04:54:05;11.70;99.90
12408;DHT22;6268;48.188;17.134;2024-03-23T04:57:25;11.70;99.90
12408;DHT22;6268;48.188;17.134;2024-03-23T05:00:46;11.70;99.90
12408;DHT22;6268;48.188;17.134;2024-03-23T05:04:08;11.60;99.90
12408;DHT22;6268;48.188;17.134;2024-03-23T05:07:28;11.60;99.90
12408;DHT22;6268;48.188;17.134;2024-03-23T05:10:50;11.70;99.90
12408;DHT22;6268;48.188;17.134;2024-03-23T05:14:11;11.60;99.90
12408;DHT22;6268;48.188;17.134;2024-03-23T05:17:31;11.70;99.90
12408;DHT22;6268;48.188;17.134;2024-03-23T05:20:56;11.70;99.90
12408;DHT22;6268;48.188;17.134;2024-03-23T05:24:16;11.70;99.90
12408;DHT22;6268;48.188;17.134;2024-03-23T05:27:37;11.70;99.90
12408;DHT22;6268;48.188;17.134;2024-03-23T05:30:57;11.60;99.90
12408;DHT22;6268;48.188;17.134;2024-03-23T05:34:19;11.50;99.90
12408;DHT22;6268;48.188;17.134;2024-03-23T05:37:38;11.40;99.90
12408;DHT22;6268;48.188;17.134;2024-03-23T05:40:59;11.50;99.90
12408;DHT22;6268;48.188;17.134;2024-03-23T05:44:21;11.50;99.90
12408;DHT22;6268;48.188;17.134;2024-03-23T05:47:44;11.50;99.90
12408;DHT22;6268;48.188;17.134;2024-03-23T05:51:04;11.60;99.90
12408;DHT22;6268;48.188;17.134;2024-03-23T05:54:23;11.60;99.90
12408;DHT22;6268;48.188;17.134;2024-03-23T05:57:44;11.70;99.90
12408;DHT22;6268;48.188;17.134;2024-03-23T06:01:06;11.80;99.90
12408;DHT22;6268;48.188;17.134;2024-03-23T06:04:26;11.90;99.90
12408;DHT22;6268;48.188;17.134;2024-03-23T06:07:45;11.90;99.90
12408;DHT22;6268;48.188;17.134;2024-03-23T06:11:06;12.00;99.90
12408;DHT22;6268;48.188;17.134;2024-03-23T06:14:26;12.00;99.90
12408;DHT22;6268;48.188;17.134;2024-03-23T06:17:48;12.00;99.90
12408;DHT22;6268;48.188;17.134;2024-03-23T06:21:13;12.00;99.90
12408;DHT22;6268;48.188;17.134;2024-03-23T06:24:34;12.10;99.90
12408;DHT22;6268;48.188;17.134;2024-03-23T06:27:53;12.20;99.90
12408;DHT22;6268;48.188;17.134;2024-03-23T06:31:14;12.30;99.90
12408;DHT22;6268;48.188;17.134;2024-03-23T06:34:36;12.30;99.90
12408;DHT22;6268;48.188;17.134;2024-03-23T06:37:56;12.30;99.90
12408;DHT22;6268;48.188;17.134;2024-03-23T06:41:16;12.40;99.90
12408;DHT22;6268;48.188;17.134;2024-03-23T06:44:36;12.40;99.90
12408;DHT22;6268;48.188;17.134;2024-03-23T06:47:56;12.60;99.90
12408;DHT22;6268;48.188;17.134;2024-03-23T06:51:18;12.70;99.90
12408;DHT22;6268;48.188;17.134;2024-03-23T06:54:37;12.90;99.90
12408;DHT22;6268;48.188;17.134;2024-03-23T06:57:57;13.00;99.90
12408;DHT22;6268;48.188;17.134;2024-03-23T07:01:17;13.10;99.90
12408;DHT22;6268;48.188;17.134;2024-03-23T07:04:37;13.20;99.90
12408;DHT22;6268;48.188;17.134;2024-03-23T07:07:58;13.30;99.90
12408;DHT22;6268;48.188;17.134;2024-03-23T07:11:20;13.40;99.90
12408;DHT22;6268;48.188;17.134;2024-03-23T07:14:40;13.40;99.90
12408;DHT22;6268;48.188;17.134;2024-03-23T07:18:00;13.50;99.90
12408;DHT22;6268;48.188;17.134;2024-03-23T07:21:22;13.50;99.90
12408;DHT22;6268;48.188;17.134;2024-03-23T07:24:44;13.50;99.90
12408;DHT22;6268;48.188;17.134;2024-03-23T07:28:05;13.50;99.90
12408;DHT22;6268;48.188;17.134;2024-03-23T07:31:24;13.40;99.90
12408;DHT22;6268;48.188;17.134;2024-03-23T07:34:45;13.40;99.90
12408;DHT22;6268;48.188;17.134;2024-03-23T07:38:05;13.50;99.90
12408;DHT22;6268;48.188;17.134;2024-03-23T07:41:27;13.50;99.90
12408;DHT22;6268;48.188;17.134;2024-03-23T07:44:47;13.60;99.90
12408;DHT22;6268;48.188;17.134;2024-03-23T07:48:07;13.60;99.90
12408;DHT22;6268;48.188;17.134;2024-03-23T07:51:27;13.60;99.90
12408;DHT22;6268;48.188;17.134;2024-03-23T07:54:47;13.70;99.90
12408;DHT22;6268;48.188;17.134;2024-03-23T07:58:09;13.80;99.90
12408;DHT22;6268;48.188;17.134;2024-03-23T08:01:30;14.00;99.90
12408;DHT22;6268;48.188;17.134;2024-03-23T08:04:50;14.20;99.90
12408;DHT22;6268;48.188;17.134;2024-03-23T08:08:09;14.70;99.90
12408;DHT22;6268;48.188;17.134;2024-03-23T08:11:31;15.50;99.90
12408;DHT22;6268;48.188;17.134;2024-03-23T08:14:52;15.70;99.90
12408;DHT22;6268;48.188;17.134;2024-03-23T08:18:13;15.40;99.90
12408;DHT22;6268;48.188;17.134;2024-03-23T08:21:34;15.10;99.90
12408;DHT22;6268;48.188;17.134;2024-03-23T08:24:55;14.80;99.90
12408;DHT22;6268;48.188;17.134;2024-03-23T08:28:24;14.70;99.90
12408;DHT22;6268;48.188;17.134;2024-03-23T08:31:46;15.20;99.90
12408;DHT22;6268;48.188;17.134;2024-03-23T08:35:07;15.80;99.90
12408;DHT22;6268;48.188;17.134;2024-03-23T08:38:29;16.60;99.90
12408;DHT22;6268;48.188;17.134;2024-03-23T08:41:48;17.00;99.90
12408;DHT22;6268;48.188;17.134;2024-03-23T08:45:11;16.70;99.90
12408;DHT22;6268;48.188;17.134;2024-03-23T08:48:34;16.40;99.90
12408;DHT22;6268;48.188;17.134;2024-03-23T08:51:55;16.30;99.90
12408;DHT22;6268;48.188;17.134;2024-03-23T08:55:16;16.50;99.90
12408;DHT22;6268;48.188;17.134;2024-03-23T08:58:38;16.40;99.90
12408;DHT22;6268;48.188;17.134;2024-03-23T09:01:58;16.50;99.90
12408;DHT22;6268;48.188;17.134;2024-03-23T09:05:21;17.80;99.90
12408;DHT22;6268;48.188;17.134;2024-03-23T09:08:42;19.00;95.80
12408;DHT22;6268;48.188;17.134;2024-03-23T09:12:02;19.60;92.50
12408;DHT22;6268;48.188;17.134;2024-03-23T09:15:22;20.10;89.80
12408;DHT22;6268;48.188;17.134;2024-03-23T09:18:42;20.10;87.60
12408;DHT22;6268;48.188;17.134;2024-03-23T09:22:05;20.30;87.60
12408;DHT22;6268;48.188;17.134;2024-03-23T09:25:25;20.40;85.80
12408;DHT22;6268;48.188;17.134;2024-03-23T09:28:48;20.90;83.40
12408;DHT22;6268;48.188;17.134;2024-03-23T09:32:07;21.80;79.20
12408;DHT22;6268;48.188;17.134;2024-03-23T09:35:28;22.20;74.10
12408;DHT22;6268;48.188;17.134;2024-03-23T09:38:49;22.70;72.00
12408;DHT22;6268;48.188;17.134;2024-03-23T09:42:09;23.20;70.30
12408;DHT22;6268;48.188;17.134;2024-03-23T09:45:34;23.20;69.20
12408;DHT22;6268;48.188;17.134;2024-03-23T09:48:56;23.20;68.90
12408;DHT22;6268;48.188;17.134;2024-03-23T09:52:16;23.60;67.30
12408;DHT22;6268;48.188;17.134;2024-03-23T09:55:41;23.60;65.10
12408;DHT22;6268;48.188;17.134;2024-03-23T09:59:01;23.10;66.80
12408;DHT22;6268;48.188;17.134;2024-03-23T10:02:24;22.50;67.50
12408;DHT22;6268;48.188;17.134;2024-03-23T10:05:43;22.20;68.60
12408;DHT22;6268;48.188;17.134;2024-03-23T10:09:16;22.50;67.50
12408;DHT22;6268;48.188;17.134;2024-03-23T10:12:44;22.60;67.40
12408;DHT22;6268;48.188;17.134;2024-03-23T10:16:07;22.30;66.80
12408;DHT22;6268;48.188;17.134;2024-03-23T10:19:39;21.60;69.50
12408;DHT22;6268;48.188;17.134;2024-03-23T10:22:59;21.80;70.20
12408;DHT22;6268;48.188;17.134;2024-03-23T10:26:20;22.30;68.00
12408;DHT22;6268;48.188;17.134;2024-03-23T10:29:45;22.40;68.90
12408;DHT22;6268;48.188;17.134;2024-03-23T10:33:09;22.80;67.40
12408;DHT22;6268;48.188;17.134;2024-03-23T10:36:30;22.00;68.50
12408;DHT22;6268;48.188;17.134;2024-03-23T10:39:51;21.90;68.70
12408;DHT22;6268;48.188;17.134;2024-03-23T10:43:12;22.00;68.40
12408;DHT22;6268;48.188;17.134;2024-03-23T10:46:34;22.00;68.60
12408;DHT22;6268;48.188;17.134;2024-03-23T10:49:55;21.50;69.50
12408;DHT22;6268;48.188;17.134;2024-03-23T10:53:15;21.30;71.10
12408;DHT22;6268;48.188;17.134;2024-03-23T10:56:40;21.00;71.80
12408;DHT22;6268;48.188;17.134;2024-03-23T11:00:03;20.40;73.80
12408;DHT22;6268;48.188;17.134;2024-03-23T11:03:35;20.50;75.10
12408;DHT22;6268;48.188;17.134;2024-03-23T11:07:00;20.80;75.50
12408;DHT22;6268;48.188;17.134;2024-03-23T11:10:27;20.70;75.00
12408;DHT22;6268;48.188;17.134;2024-03-23T11:13:48;20.30;76.80
12408;DHT22;6268;48.188;17.134;2024-03-23T11:17:09;20.30;77.40
12408;DHT22;6268;48.188;17.134;2024-03-23T11:20:35;20.30;77.10
12408;DHT22;6268;48.188;17.134;2024-03-23T11:24:15;20.20;76.90
12408;DHT22;6268;48.188;17.134;2024-03-23T11:27:44;19.90;79.30
12408;DHT22;6268;48.188;17.134;2024-03-23T11:31:09;20.00;79.50
12408;DHT22;6268;48.188;17.134;2024-03-23T11:34:30;19.70;80.00
12408;DHT22;6268;48.188;17.134;2024-03-23T11:38:06;19.50;81.80
12408;DHT22;6268;48.188;17.134;2024-03-23T11:41:46;19.60;82.50
12408;DHT22;6268;48.188;17.134;2024-03-23T11:45:08;19.80;81.00
12408;DHT22;6268;48.188;17.134;2024-03-23T11:48:29;19.80;81.10
12408;DHT22;6268;48.188;17.134;2024-03-23T11:51:49;19.90;81.90
12408;DHT22;6268;48.188;17.134;2024-03-23T11:55:11;20.00;81.30
12408;DHT22;6268;48.188;17.134;2024-03-23T11:58:32;20.00;81.60
12408;DHT22;6268;48.188;17.134;2024-03-23T12:01:57;19.90;81.60
12408;DHT22;6268;48.188;17.134;2024-03-23T12:05:20;19.80;82.50
12408;DHT22;6268;48.188;17.134;2024-03-23T12:08:45;20.10;83.40
12408;DHT22;6268;48.188;17.134;2024-03-23T12:12:10;20.00;83.00
12408;DHT22;6268;48.188;17.134;2024-03-23T12:15:30;19.70;84.50
12408;DHT22;6268;48.188;17.134;2024-03-23T12:18:53;19.70;85.70
12408;DHT22;6268;48.188;17.134;2024-03-23T12:22:25;19.90;85.10
12408;DHT22;6268;48.188;17.134;2024-03-23T12:25:49;20.10;85.00
12408;DHT22;6268;48.188;17.134;2024-03-23T12:29:09;20.10;85.40
12408;DHT22;6268;48.188;17.134;2024-03-23T12:32:30;20.20;84.30
12408;DHT22;6268;48.188;17.134;2024-03-23T12:35:52;20.30;84.10
12408;DHT22;6268;48.188;17.134;2024-03-23T12:39:11;20.30;83.30
12408;DHT22;6268;48.188;17.134;2024-03-23T12:42:32;20.20;83.40
12408;DHT22;6268;48.188;17.134;2024-03-23T12:45:54;20.20;82.00
12408;DHT22;6268;48.188;17.134;2024-03-23T12:49:13;20.20;83.40
12408;DHT22;6268;48.188;17.134;2024-03-23T12:52:35;20.10;83.80
12408;DHT22;6268;48.188;17.134;2024-03-23T12:55:55;19.90;84.40
12408;DHT22;6268;48.188;17.134;2024-03-23T12:59:15;19.70;85.00
12408;DHT22;6268;48.188;17.134;2024-03-23T13:02:39;19.70;86.30
12408;DHT22;6268;48.188;17.134;2024-03-23T13:05:59;19.60;85.30
12408;DHT22;6268;48.188;17.134;2024-03-23T13:09:20;19.50;84.00
12408;DHT22;6268;48.188;17.134;2024-03-23T13:12:40;19.40;83.50
12408;DHT22;6268;48.188;17.134;2024-03-23T13:16:01;19.50;84.00
12408;DHT22;6268;48.188;17.134;2024-03-23T13:19:23;19.50;82.60
12408;DHT22;6268;48.188;17.134;2024-03-23T13:22:42;19.60;81.90
12408;DHT22;6268;48.188;17.134;2024-03-23T13:26:04;19.60;82.70
12408;DHT22;6268;48.188;17.134;2024-03-23T13:29:25;19.50;82.20
12408;DHT22;6268;48.188;17.134;2024-03-23T13:32:44;19.40;82.80
12408;DHT22;6268;48.188;17.134;2024-03-23T13:36:08;19.40;84.20
12408;DHT22;6268;48.188;17.134;2024-03-23T13:39:28;19.50;82.70
12408;DHT22;6268;48.188;17.134;2024-03-23T13:42:48;19.50;82.10
12408;DHT22;6268;48.188;17.134;2024-03-23T13:46:07;19.60;81.50
12408;DHT22;6268;48.188;17.134;2024-03-23T13:49:28;19.70;80.60
12408;DHT22;6268;48.188;17.134;2024-03-23T13:52:49;19.80;80.70
12408;DHT22;6268;48.188;17.134;2024-03-23T13:56:10;19.90;79.40
12408;DHT22;6268;48.188;17.134;2024-03-23T13:59:30;20.00;77.30
12408;DHT22;6268;48.188;17.134;2024-03-23T14:02:50;20.00;78.10
12408;DHT22;6268;48.188;17.134;2024-03-23T14:06:11;20.00;77.30
12408;DHT22;6268;48.188;17.134;2024-03-23T14:09:34;19.80;81.60
12408;DHT22;6268;48.188;17.134;2024-03-23T14:12:54;19.30;87.00
12408;DHT22;6268;48.188;17.134;2024-03-23T14:16:14;18.90;90.20
12408;DHT22;6268;48.188;17.134;2024-03-23T14:19:38;18.30;91.70
12408;DHT22;6268;48.188;17.134;2024-03-23T14:22:58;17.90;93.40
12408;DHT22;6268;48.188;17.134;2024-03-23T14:26:20;17.60;91.90
12408;DHT22;6268;48.188;17.134;2024-03-23T14:29:40;17.50;91.80
12408;DHT22;6268;48.188;17.134;2024-03-23T14:33:01;17.40;91.90
12408;DHT22;6268;48.188;17.134;2024-03-23T14:36:21;17.40;91.60
12408;DHT22;6268;48.188;17.134;2024-03-23T14:39:41;17.20;91.00
12408;DHT22;6268;48.188;17.134;2024-03-23T14:43:04;17.00;91.30
12408;DHT22;6268;48.188;17.134;2024-03-23T14:46:23;16.70;92.50
12408;DHT22;6268;48.188;17.134;2024-03-23T14:49:44;16.50;92.70
12408;DHT22;6268;48.188;17.134;2024-03-23T14:53:04;16.40;92.70
12408;DHT22;6268;48.188;17.134;2024-03-23T14:56:24;16.20;93.00
12408;DHT22;6268;48.188;17.134;2024-03-23T14:59:47;16.10;93.80
12408;DHT22;6268;48.188;17.134;2024-03-23T15:03:07;16.00;94.30
12408;DHT22;6268;48.188;17.134;2024-03-23T15:06:27;15.90;95.10
12408;DHT22;6268;48.188;17.134;2024-03-23T15:09:47;15.70;96.80
12408;DHT22;6268;48.188;17.134;2024-03-23T15:13:08;15.50;99.40
12408;DHT22;6268;48.188;17.134;2024-03-23T15:16:30;15.30;99.90
12408;DHT22;6268;48.188;17.134;2024-03-23T15:19:49;15.10;99.90
12408;DHT22;6268;48.188;17.134;2024-03-23T15:23:18;15.00;99.90
12408;DHT22;6268;48.188;17.134;2024-03-23T15:26:39;15.00;99.90
12408;DHT22;6268;48.188;17.134;2024-03-23T15:29:58;14.80;99.90
12408;DHT22;6268;48.188;17.134;2024-03-23T15:33:21;14.70;99.90
12408;DHT22;6268;48.188;17.134;2024-03-23T15:36:40;14.70;99.90
12408;DHT22;6268;48.188;17.134;2024-03-23T15:40:01;14.50;99.90
12408;DHT22;6268;48.188;17.134;2024-03-23T15:43:21;14.30;99.90
12408;DHT22;6268;48.188;17.134;2024-03-23T15:46:42;14.20;99.90
12408;DHT22;6268;48.188;17.134;2024-03-23T15:50:03;13.90;99.90
12408;DHT22;6268;48.188;17.134;2024-03-23T15:53:25;13.60;99.90
12408;DHT22;6268;48.188;17.134;2024-03-23T15:56:46;13.30;99.90
12408;DHT22;6268;48.188;17.134;2024-03-23T16:00:08;12.90;99.90
12408;DHT22;6268;48.188;17.134;2024-03-23T16:03:28;12.40;99.90
12408;DHT22;6268;48.188;17.134;2024-03-23T16:06:51;12.20;99.90
12408;DHT22;6268;48.188;17.134;2024-03-23T16:10:11;11.90;99.90
12408;DHT22;6268;48.188;17.134;2024-03-23T16:13:31;11.80;99.90
12408;DHT22;6268;48.188;17.134;2024-03-23T16:16:52;11.70;99.90
12408;DHT22;6268;48.188;17.134;2024-03-23T16:20:12;11.60;99.90
12408;DHT22;6268;48.188;17.134;2024-03-23T16:23:34;11.50;99.90
12408;DHT22;6268;48.188;17.134;2024-03-23T16:26:54;11.40;99.90
12408;DHT22;6268;48.188;17.134;2024-03-23T16:30:15;11.30;99.90
12408;DHT22;6268;48.188;17.134;2024-03-23T16:33:37;11.30;99.90
12408;DHT22;6268;48.188;17.134;2024-03-23T16:36:58;11.30;99.90
12408;DHT22;6268;48.188;17.134;2024-03-23T16:40:20;11.40;99.90
12408;DHT22;6268;48.188;17.134;2024-03-23T16:43:42;11.50;99.90
12408;DHT22;6268;48.188;17.134;2024-03-23T16:47:01;11.50;99.90
12408;DHT22;6268;48.188;17.134;2024-03-23T16:50:22;11.60;99.90
12408;DHT22;6268;48.188;17.134;2024-03-23T16:53:41;11.70;99.90
12408;DHT22;6268;48.188;17.134;2024-03-23T16:57:04;11.70;99.90
12408;DHT22;6268;48.188;17.134;2024-03-23T17:00:23;11.60;99.90
12408;DHT22;6268;48.188;17.134;2024-03-23T17:03:47;11.50;99.90
12408;DHT22;6268;48.188;17.134;2024-03-23T17:07:07;11.50;99.90
12408;DHT22;6268;48.188;17.134;2024-03-23T17:10:28;11.40;99.90
12408;DHT22;6268;48.188;17.134;2024-03-23T17:13:51;11.30;99.90
12408;DHT22;6268;48.188;17.134;2024-03-23T17:17:11;11.20;99.90
12408;DHT22;6268;48.188;17.134;2024-03-23T17:20:33;11.30;99.90
12408;DHT22;6268;48.188;17.134;2024-03-23T17:23:53;11.30;99.90
12408;DHT22;6268;48.188;17.134;2024-03-23T17:27:18;11.30;99.90
12408;DHT22;6268;48.188;17.134;2024-03-23T17:30:40;11.40;99.90
12408;DHT22;6268;48.188;17.134;2024-03-23T17:34:00;11.40;99.90
12408;DHT22;6268;48.188;17.134;2024-03-23T17:37:19;11.30;99.90
12408;DHT22;6268;48.188;17.134;2024-03-23T17:40:40;11.40;99.90
12408;DHT22;6268;48.188;17.134;2024-03-23T17:44:01;11.30;99.90
12408;DHT22;6268;48.188;17.134;2024-03-23T17:47:22;11.40;99.90
12408;DHT22;6268;48.188;17.134;2024-03-23T17:50:42;11.50;99.90
12408;DHT22;6268;48.188;17.134;2024-03-23T17:54:02;11.60;99.90
12408;DHT22;6268;48.188;17.134;2024-03-23T17:57:22;11.60;99.90
12408;DHT22;6268;48.188;17.134;2024-03-23T18:00:43;11.60;99.90
12408;DHT22;6268;48.188;17.134;2024-03-23T18:04:05;11.60;99.90
12408;DHT22;6268;48.188;17.134;2024-03-23T18:07:31;11.60;99.90
12408;DHT22;6268;48.188;17.134;2024-03-23T18:10:51;11.70;99.90
12408;DHT22;6268;48.188;17.134;2024-03-23T18:14:11;11.70;99.90
12408;DHT22;6268;48.188;17.134;2024-03-23T18:17:31;11.70;99.90
12408;DHT22;6268;48.188;17.134;2024-03-23T18:20:54;11.80;99.90
12408;DHT22;6268;48.188;17.134;2024-03-23T18:24:14;11.80;99.90
12408;DHT22;6268;48.188;17.134;2024-03-23T18:27:33;11.80;99.90
12408;DHT22;6268;48.188;17.134;2024-03-23T18:30:57;11.80;99.90
12408;DHT22;6268;48.188;17.134;2024-03-23T18:34:16;11.80;99.90
12408;DHT22;6268;48.188;17.134;2024-03-23T18:37:38;11.90;99.90
12408;DHT22;6268;48.188;17.134;2024-03-23T18:40:57;11.90;99.90
12408;DHT22;6268;48.188;17.134;2024-03-23T18:44:18;11.90;99.90
12408;DHT22;6268;48.188;17.134;2024-03-23T18:47:37;11.90;99.90
12408;DHT22;6268;48.188;17.134;2024-03-23T18:51:01;11.80;99.90
12408;DHT22;6268;48.188;17.134;2024-03-23T18:54:24;11.70;99.90
12408;DHT22;6268;48.188;17.134;2024-03-23T18:57:43;11.80;99.90
12408;DHT22;6268;48.188;17.134;2024-03-23T19:01:05;11.80;99.90
12408;DHT22;6268;48.188;17.134;2024-03-23T19:04:25;11.70;99.90
12408;DHT22;6268;48.188;17.134;2024-03-23T19:07:44;11.60;99.90
12408;DHT22;6268;48.188;17.134;2024-03-23T19:11:06;11.60;99.90
12408;DHT22;6268;48.188;17.134;2024-03-23T19:14:26;11.50;99.90
12408;DHT22;6268;48.188;17.134;2024-03-23T19:17:46;11.60;99.90
12408;DHT22;6268;48.188;17.134;2024-03-23T19:21:06;11.60;99.90
12408;DHT22;6268;48.188;17.134;2024-03-23T19:24:25;11.60;99.90
12408;DHT22;6268;48.188;17.134;2024-03-23T19:27:47;11.60;99.90
12408;DHT22;6268;48.188;17.134;2024-03-23T19:31:07;11.60;99.90
12408;DHT22;6268;48.188;17.134;2024-03-23T19:34:27;11.60;99.90
12408;DHT22;6268;48.188;17.134;2024-03-23T19:37:49;11.60;99.90
12408;DHT22;6268;48.188;17.134;2024-03-23T19:41:09;11.60;99.90
12408;DHT22;6268;48.188;17.134;2024-03-23T19:44:30;11.50;99.90
12408;DHT22;6268;48.188;17.134;2024-03-23T19:47:50;11.50;99.90
12408;DHT22;6268;48.188;17.134;2024-03-23T19:51:09;11.60;99.90
12408;DHT22;6268;48.188;17.134;2024-03-23T19:54:33;11.70;99.90
12408;DHT22;6268;48.188;17.134;2024-03-23T19:57:53;11.80;99.90
12408;DHT22;6268;48.188;17.134;2024-03-23T20:01:16;12.00;99.90
12408;DHT22;6268;48.188;17.134;2024-03-23T20:04:37;12.00;99.90
12408;DHT22;6268;48.188;17.134;2024-03-23T20:07:56;12.00;99.90
12408;DHT22;6268;48.188;17.134;2024-03-23T20:11:17;12.10;99.90
12408;DHT22;6268;48.188;17.134;2024-03-23T20:14:37;12.00;99.90
12408;DHT22;6268;48.188;17.134;2024-03-23T20:17:59;12.00;99.90
12408;DHT22;6268;48.188;17.134;2024-03-23T20:21:19;12.00;99.90
12408;DHT22;6268;48.188;17.134;2024-03-23T20:24:39;11.90;99.90
12408;DHT22;6268;48.188;17.134;2024-03-23T20:27:59;11.90;99.90
12408;DHT22;6268;48.188;17.134;2024-03-23T20:31:19;11.90;99.90
12408;DHT22;6268;48.188;17.134;2024-03-23T20:34:41;11.90;99.90
12408;DHT22;6268;48.188;17.134;2024-03-23T20:38:01;11.90;99.90
12408;DHT22;6268;48.188;17.134;2024-03-23T20:41:21;11.90;99.90
12408;DHT22;6268;48.188;17.134;2024-03-23T20:44:40;11.80;99.90
12408;DHT22;6268;48.188;17.134;2024-03-23T20:48:01;11.80;99.90
12408;DHT22;6268;48.188;17.134;2024-03-23T20:51:24;11.90;99.90
12408;DHT22;6268;48.188;17.134;2024-03-23T20:54:44;11.90;99.90
12408;DHT22;6268;48.188;17.134;2024-03-23T20:58:03;11.90;99.90
12408;DHT22;6268;48.188;17.134;2024-03-23T21:01:24;11.80;99.90
12408;DHT22;6268;48.188;17.134;2024-03-23T21:04:43;11.80;99.90
12408;DHT22;6268;48.188;17.134;2024-03-23T21:08:06;11.80;99.90
12408;DHT22;6268;48.188;17.134;2024-03-23T21:11:26;11.70;99.90
12408;DHT22;6268;48.188;17.134;2024-03-23T21:14:46;11.70;99.90
12408;DHT22;6268;48.188;17.134;2024-03-23T21:18:11;11.70;99.90
12408;DHT22;6268;48.188;17.134;2024-03-23T21:21:31;11.60;99.90
12408;DHT22;6268;48.188;17.134;2024-03-23T21:24:55;11.50;99.90
12408;DHT22;6268;48.188;17.134;2024-03-23T21:28:20;11.50;99.90
12408;DHT22;6268;48.188;17.134;2024-03-23T21:31:41;11.40;99.90
12408;DHT22;6268;48.188;17.134;2024-03-23T21:35:00;11.30;99.90
12408;DHT22;6268;48.188;17.134;2024-03-23T21:38:22;11.30;99.90
12408;DHT22;6268;48.188;17.134;2024-03-23T21:41:44;11.20;99.90
12408;DHT22;6268;48.188;17.134;2024-03-23T21:45:05;11.10;99.90
12408;DHT22;6268;48.188;17.134;2024-03-23T21:48:27;11.10;99.90
12408;DHT22;6268;48.188;17.134;2024-03-23T21:51:48;11.10;99.90
12408;DHT22;6268;48.188;17.134;2024-03-23T21:55:08;11.00;99.90
12408;DHT22;6268;48.188;17.134;2024-03-23T21:58:31;11.00;99.90
12408;DHT22;6268;48.188;17.134;2024-03-23T22:01:50;10.90;99.90
12408;DHT22;6268;48.188;17.134;2024-03-23T22:05:12;10.80;99.90